ORK weather

Cork Airport
Cork, County Cork, Ireland

Public forecast

Using degrees Celsius for public forecast. Weather courtesy of forecast.io.

Current aviation weather report (METAR) for Cork Airport

Retrieved 2019/10/19 13:30 UTC (0 seconds ago):

EICK 191330Z 34010KT 9999 FEW012 FEW018CB BKN024 11/08 Q1003 NOSIG

Aviation forecast (TAF) for Cork Airport

Retrieved 2019/10/19 12:09 UTC (1 hour ago):

TAF TAF EICK 191100Z 1912/2012 31010KT 9999 SCT020 BKN030 BECMG 1912/1914 34012KT TEMPO 1912/1918 -SHRA SCT012 SCT018CB PROB30 TEMPO 2002/2007 SCT007 BKN012 BECMG 2010/2012 01012KT